sensor_id;sensor_type;location;lat;lon;timestamp;P1;durP1;ratioP1;P2;durP2;ratioP2
71148;SDS011;59072;42.144;25.200;2022-09-16T00:00:13;22.80;;;11.55;;
71148;SDS011;59072;42.144;25.200;2022-09-16T00:02:39;20.67;;;10.30;;
71148;SDS011;59072;42.144;25.200;2022-09-16T00:05:05;19.83;;;11.35;;
71148;SDS011;59072;42.144;25.200;2022-09-16T00:07:30;21.80;;;9.98;;
71148;SDS011;59072;42.144;25.200;2022-09-16T00:09:56;17.90;;;7.65;;
71148;SDS011;59072;42.144;25.200;2022-09-16T00:12:21;13.82;;;6.70;;
71148;SDS011;59072;42.144;25.200;2022-09-16T00:14:47;13.13;;;6.28;;
71148;SDS011;59072;42.144;25.200;2022-09-16T00:17:12;12.90;;;5.22;;
71148;SDS011;59072;42.144;25.200;2022-09-16T00:19:38;10.88;;;4.57;;
71148;SDS011;59072;42.144;25.200;2022-09-16T00:22:03;10.43;;;4.70;;
71148;SDS011;59072;42.144;25.200;2022-09-16T00:24:29;14.32;;;6.18;;
71148;SDS011;59072;42.144;25.200;2022-09-16T00:26:55;16.25;;;6.85;;
71148;SDS011;59072;42.144;25.200;2022-09-16T00:29:20;9.93;;;5.40;;
71148;SDS011;59072;42.144;25.200;2022-09-16T00:31:46;12.15;;;5.63;;
71148;SDS011;59072;42.144;25.200;2022-09-16T00:34:11;11.45;;;5.25;;
71148;SDS011;59072;42.144;25.200;2022-09-16T00:36:37;13.65;;;5.43;;
71148;SDS011;59072;42.144;25.200;2022-09-16T00:39:02;14.27;;;5.63;;
71148;SDS011;59072;42.144;25.200;2022-09-16T00:41:28;15.23;;;5.90;;
71148;SDS011;59072;42.144;25.200;2022-09-16T00:44:47;13.90;;;5.63;;
71148;SDS011;59072;42.144;25.200;2022-09-16T00:47:10;13.63;;;6.28;;
71148;SDS011;59072;42.144;25.200;2022-09-16T00:49:36;13.02;;;5.38;;
71148;SDS011;59072;42.144;25.200;2022-09-16T00:52:04;10.20;;;5.63;;
71148;SDS011;59072;42.144;25.200;2022-09-16T00:54:30;11.07;;;5.85;;
71148;SDS011;59072;42.144;25.200;2022-09-16T00:57:00;12.02;;;6.45;;
71148;SDS011;59072;42.144;25.200;2022-09-16T00:59:27;14.85;;;6.60;;
71148;SDS011;59072;42.144;25.200;2022-09-16T01:01:57;11.43;;;6.28;;
71148;SDS011;59072;42.144;25.200;2022-09-16T01:04:26;13.20;;;6.13;;
71148;SDS011;59072;42.144;25.200;2022-09-16T01:06:55;13.75;;;6.78;;
71148;SDS011;59072;42.144;25.200;2022-09-16T01:09:22;11.63;;;7.05;;
71148;SDS011;59072;42.144;25.200;2022-09-16T01:14:15;11.90;;;7.35;;
71148;SDS011;59072;42.144;25.200;2022-09-16T01:17:05;13.30;;;7.50;;
71148;SDS011;59072;42.144;25.200;2022-09-16T01:22:37;13.85;;;7.75;;
71148;SDS011;59072;42.144;25.200;2022-09-16T01:25:25;18.20;;;8.25;;
71148;SDS011;59072;42.144;25.200;2022-09-16T01:30:50;11.23;;;6.60;;
71148;SDS011;59072;42.144;25.200;2022-09-16T01:33:42;12.35;;;6.15;;
71148;SDS011;59072;42.144;25.200;2022-09-16T01:44:27;8.75;;;5.88;;
71148;SDS011;59072;42.144;25.200;2022-09-16T01:47:11;14.20;;;5.95;;
71148;SDS011;59072;42.144;25.200;2022-09-16T01:49:56;11.90;;;5.80;;
71148;SDS011;59072;42.144;25.200;2022-09-16T01:52:45;9.35;;;5.75;;
71148;SDS011;59072;42.144;25.200;2022-09-16T01:58:21;14.60;;;7.05;;
71148;SDS011;59072;42.144;25.200;2022-09-16T02:00:56;14.47;;;6.80;;
71148;SDS011;59072;42.144;25.200;2022-09-16T02:03:27;12.55;;;5.72;;
71148;SDS011;59072;42.144;25.200;2022-09-16T02:06:02;12.15;;;6.22;;
71148;SDS011;59072;42.144;25.200;2022-09-16T02:08:33;12.05;;;6.25;;
71148;SDS011;59072;42.144;25.200;2022-09-16T02:11:07;10.75;;;6.28;;
71148;SDS011;59072;42.144;25.200;2022-09-16T02:13:38;11.05;;;5.40;;
71148;SDS011;59072;42.144;25.200;2022-09-16T02:16:08;9.45;;;5.53;;
71148;SDS011;59072;42.144;25.200;2022-09-16T02:18:45;12.35;;;5.68;;
71148;SDS011;59072;42.144;25.200;2022-09-16T02:21:17;13.75;;;6.97;;
71148;SDS011;59072;42.144;25.200;2022-09-16T02:23:46;14.48;;;6.13;;
71148;SDS011;59072;42.144;25.200;2022-09-16T02:26:19;10.35;;;5.85;;
71148;SDS011;59072;42.144;25.200;2022-09-16T02:28:48;16.15;;;6.43;;
71148;SDS011;59072;42.144;25.200;2022-09-16T02:31:18;12.75;;;6.07;;
71148;SDS011;59072;42.144;25.200;2022-09-16T02:33:56;11.63;;;6.28;;
71148;SDS011;59072;42.144;25.200;2022-09-16T02:36:26;11.48;;;6.28;;
71148;SDS011;59072;42.144;25.200;2022-09-16T02:38:57;11.05;;;5.68;;
71148;SDS011;59072;42.144;25.200;2022-09-16T02:41:28;13.63;;;6.22;;
71148;SDS011;59072;42.144;25.200;2022-09-16T02:43:53;12.10;;;6.07;;
71148;SDS011;59072;42.144;25.200;2022-09-16T02:52:06;11.40;;;5.68;;
71148;SDS011;59072;42.144;25.200;2022-09-16T02:57:11;11.07;;;6.63;;
71148;SDS011;59072;42.144;25.200;2022-09-16T02:59:37;10.45;;;5.95;;
71148;SDS011;59072;42.144;25.200;2022-09-16T03:02:03;9.77;;;6.22;;
71148;SDS011;59072;42.144;25.200;2022-09-16T03:04:29;10.95;;;5.97;;
71148;SDS011;59072;42.144;25.200;2022-09-16T03:06:55;10.27;;;5.95;;
71148;SDS011;59072;42.144;25.200;2022-09-16T03:09:21;12.95;;;6.28;;
71148;SDS011;59072;42.144;25.200;2022-09-16T03:27:55;11.35;;;5.88;;
71148;SDS011;59072;42.144;25.200;2022-09-16T03:30:21;11.15;;;6.45;;
71148;SDS011;59072;42.144;25.200;2022-09-16T03:32:56;13.73;;;5.95;;
71148;SDS011;59072;42.144;25.200;2022-09-16T03:38:24;10.40;;;5.75;;
71148;SDS011;59072;42.144;25.200;2022-09-16T03:40:51;12.77;;;6.63;;
71148;SDS011;59072;42.144;25.200;2022-09-16T03:43:17;12.48;;;6.03;;
71148;SDS011;59072;42.144;25.200;2022-09-16T03:45:43;18.17;;;6.32;;
71148;SDS011;59072;42.144;25.200;2022-09-16T03:48:09;12.68;;;5.88;;
71148;SDS011;59072;42.144;25.200;2022-09-16T03:50:36;10.38;;;6.00;;
71148;SDS011;59072;42.144;25.200;2022-09-16T03:53:01;13.35;;;6.13;;
71148;SDS011;59072;42.144;25.200;2022-09-16T03:55:27;12.65;;;6.07;;
71148;SDS011;59072;42.144;25.200;2022-09-16T03:57:53;16.17;;;6.82;;
71148;SDS011;59072;42.144;25.200;2022-09-16T04:00:19;15.80;;;7.38;;
71148;SDS011;59072;42.144;25.200;2022-09-16T04:02:44;13.50;;;6.68;;
71148;SDS011;59072;42.144;25.200;2022-09-16T04:05:10;14.30;;;6.55;;
71148;SDS011;59072;42.144;25.200;2022-09-16T04:07:36;14.68;;;6.65;;
71148;SDS011;59072;42.144;25.200;2022-09-16T04:10:01;15.82;;;6.15;;
71148;SDS011;59072;42.144;25.200;2022-09-16T04:12:28;16.95;;;6.28;;
71148;SDS011;59072;42.144;25.200;2022-09-16T04:14:53;12.73;;;5.45;;
71148;SDS011;59072;42.144;25.200;2022-09-16T04:17:19;15.55;;;5.78;;
71148;SDS011;59072;42.144;25.200;2022-09-16T04:19:44;13.82;;;5.97;;
71148;SDS011;59072;42.144;25.200;2022-09-16T04:22:09;9.65;;;4.88;;
71148;SDS011;59072;42.144;25.200;2022-09-16T04:24:35;10.00;;;4.85;;
71148;SDS011;59072;42.144;25.200;2022-09-16T04:27:00;8.60;;;5.10;;
71148;SDS011;59072;42.144;25.200;2022-09-16T04:29:26;11.65;;;5.15;;
71148;SDS011;59072;42.144;25.200;2022-09-16T04:31:52;9.98;;;5.25;;
71148;SDS011;59072;42.144;25.200;2022-09-16T04:34:18;9.15;;;5.38;;
71148;SDS011;59072;42.144;25.200;2022-09-16T04:36:43;14.60;;;6.25;;
71148;SDS011;59072;42.144;25.200;2022-09-16T04:39:09;16.27;;;6.28;;
71148;SDS011;59072;42.144;25.200;2022-09-16T04:41:36;16.08;;;6.55;;
71148;SDS011;59072;42.144;25.200;2022-09-16T04:44:02;13.23;;;6.15;;
71148;SDS011;59072;42.144;25.200;2022-09-16T04:46:29;10.40;;;5.63;;
71148;SDS011;59072;42.144;25.200;2022-09-16T04:48:56;12.02;;;6.72;;
71148;SDS011;59072;42.144;25.200;2022-09-16T04:51:23;10.57;;;5.78;;
71148;SDS011;59072;42.144;25.200;2022-09-16T04:53:51;13.88;;;6.65;;
71148;SDS011;59072;42.144;25.200;2022-09-16T04:56:19;14.15;;;6.78;;
71148;SDS011;59072;42.144;25.200;2022-09-16T04:58:48;14.77;;;5.93;;
71148;SDS011;59072;42.144;25.200;2022-09-16T05:01:16;11.95;;;6.07;;
71148;SDS011;59072;42.144;25.200;2022-09-16T05:03:44;13.02;;;6.57;;
71148;SDS011;59072;42.144;25.200;2022-09-16T05:06:15;13.75;;;6.90;;
71148;SDS011;59072;42.144;25.200;2022-09-16T05:08:43;12.90;;;6.88;;
71148;SDS011;59072;42.144;25.200;2022-09-16T05:11:09;20.30;;;8.05;;
71148;SDS011;59072;42.144;25.200;2022-09-16T05:13:37;17.48;;;7.78;;
71148;SDS011;59072;42.144;25.200;2022-09-16T05:16:07;19.27;;;8.23;;
71148;SDS011;59072;42.144;25.200;2022-09-16T05:18:35;13.75;;;7.28;;
71148;SDS011;59072;42.144;25.200;2022-09-16T05:21:03;18.95;;;7.72;;
71148;SDS011;59072;42.144;25.200;2022-09-16T05:26:00;15.68;;;7.10;;
71148;SDS011;59072;42.144;25.200;2022-09-16T05:28:37;17.30;;;8.00;;
71148;SDS011;59072;42.144;25.200;2022-09-16T05:31:10;13.32;;;7.93;;
71148;SDS011;59072;42.144;25.200;2022-09-16T05:33:39;16.35;;;8.73;;
71148;SDS011;59072;42.144;25.200;2022-09-16T05:36:07;17.67;;;8.10;;
71148;SDS011;59072;42.144;25.200;2022-09-16T05:38:36;13.98;;;8.10;;
71148;SDS011;59072;42.144;25.200;2022-09-16T05:41:02;16.38;;;9.50;;
71148;SDS011;59072;42.144;25.200;2022-09-16T05:43:29;15.55;;;8.30;;
71148;SDS011;59072;42.144;25.200;2022-09-16T05:45:55;16.58;;;8.48;;
71148;SDS011;59072;42.144;25.200;2022-09-16T05:48:21;15.82;;;8.55;;
71148;SDS011;59072;42.144;25.200;2022-09-16T05:50:54;16.73;;;9.32;;
71148;SDS011;59072;42.144;25.200;2022-09-16T05:53:23;13.68;;;7.97;;
71148;SDS011;59072;42.144;25.200;2022-09-16T05:55:53;19.93;;;8.67;;
71148;SDS011;59072;42.144;25.200;2022-09-16T05:58:29;13.85;;;7.20;;
71148;SDS011;59072;42.144;25.200;2022-09-16T06:03:41;15.13;;;9.57;;
71148;SDS011;59072;42.144;25.200;2022-09-16T06:06:22;15.38;;;7.85;;
71148;SDS011;59072;42.144;25.200;2022-09-16T06:08:54;11.55;;;6.55;;
71148;SDS011;59072;42.144;25.200;2022-09-16T06:11:21;12.63;;;6.63;;
71148;SDS011;59072;42.144;25.200;2022-09-16T06:13:51;14.70;;;7.03;;
71148;SDS011;59072;42.144;25.200;2022-09-16T06:16:21;11.88;;;7.25;;
71148;SDS011;59072;42.144;25.200;2022-09-16T06:18:47;15.80;;;7.05;;
71148;SDS011;59072;42.144;25.200;2022-09-16T06:21:13;14.07;;;6.63;;
71148;SDS011;59072;42.144;25.200;2022-09-16T06:23:38;11.57;;;7.35;;
71148;SDS011;59072;42.144;25.200;2022-09-16T06:26:05;13.23;;;6.97;;
71148;SDS011;59072;42.144;25.200;2022-09-16T06:28:52;12.30;;;6.85;;
71148;SDS011;59072;42.144;25.200;2022-09-16T06:33:47;13.35;;;7.15;;
71148;SDS011;59072;42.144;25.200;2022-09-16T06:36:36;11.98;;;7.45;;
71148;SDS011;59072;42.144;25.200;2022-09-16T06:39:03;12.32;;;6.95;;
71148;SDS011;59072;42.144;25.200;2022-09-16T06:41:30;16.08;;;6.80;;
71148;SDS011;59072;42.144;25.200;2022-09-16T06:43:57;13.52;;;7.53;;
71148;SDS011;59072;42.144;25.200;2022-09-16T06:46:24;11.80;;;7.57;;
71148;SDS011;59072;42.144;25.200;2022-09-16T06:48:51;14.52;;;8.05;;
71148;SDS011;59072;42.144;25.200;2022-09-16T06:51:19;14.43;;;8.48;;
71148;SDS011;59072;42.144;25.200;2022-09-16T06:53:50;13.90;;;9.30;;
71148;SDS011;59072;42.144;25.200;2022-09-16T06:56:17;19.85;;;9.20;;
71148;SDS011;59072;42.144;25.200;2022-09-16T06:58:45;21.35;;;8.80;;
71148;SDS011;59072;42.144;25.200;2022-09-16T07:01:13;15.88;;;8.20;;
71148;SDS011;59072;42.144;25.200;2022-09-16T07:03:42;14.75;;;8.85;;
71148;SDS011;59072;42.144;25.200;2022-09-16T07:06:11;15.77;;;8.90;;
71148;SDS011;59072;42.144;25.200;2022-09-16T07:08:38;20.00;;;9.23;;
71148;SDS011;59072;42.144;25.200;2022-09-16T07:11:12;13.57;;;8.55;;
71148;SDS011;59072;42.144;25.200;2022-09-16T07:13:39;19.88;;;8.80;;
71148;SDS011;59072;42.144;25.200;2022-09-16T07:16:07;23.40;;;9.10;;
71148;SDS011;59072;42.144;25.200;2022-09-16T07:18:34;15.82;;;7.95;;
71148;SDS011;59072;42.144;25.200;2022-09-16T07:23:32;16.52;;;8.60;;
71148;SDS011;59072;42.144;25.200;2022-09-16T07:28:28;18.50;;;7.07;;
71148;SDS011;59072;42.144;25.200;2022-09-16T07:30:55;23.42;;;7.75;;
71148;SDS011;59072;42.144;25.200;2022-09-16T07:33:21;12.57;;;6.95;;
71148;SDS011;59072;42.144;25.200;2022-09-16T07:35:46;12.63;;;7.38;;
71148;SDS011;59072;42.144;25.200;2022-09-16T07:38:11;13.90;;;6.97;;
71148;SDS011;59072;42.144;25.200;2022-09-16T07:40:37;16.75;;;7.00;;
71148;SDS011;59072;42.144;25.200;2022-09-16T07:43:05;13.70;;;6.32;;
71148;SDS011;59072;42.144;25.200;2022-09-16T07:45:31;13.52;;;6.63;;
71148;SDS011;59072;42.144;25.200;2022-09-16T07:47:56;14.98;;;5.88;;
71148;SDS011;59072;42.144;25.200;2022-09-16T07:50:22;13.35;;;6.85;;
71148;SDS011;59072;42.144;25.200;2022-09-16T07:52:47;32.08;;;15.05;;
71148;SDS011;59072;42.144;25.200;2022-09-16T07:55:17;29.50;;;13.95;;
71148;SDS011;59072;42.144;25.200;2022-09-16T07:57:43;41.30;;;15.27;;
71148;SDS011;59072;42.144;25.200;2022-09-16T08:00:09;25.25;;;13.25;;
71148;SDS011;59072;42.144;25.200;2022-09-16T08:02:35;21.15;;;10.40;;
71148;SDS011;59072;42.144;25.200;2022-09-16T08:05:01;20.52;;;9.90;;
71148;SDS011;59072;42.144;25.200;2022-09-16T08:07:26;16.65;;;7.53;;
71148;SDS011;59072;42.144;25.200;2022-09-16T08:09:52;16.80;;;7.63;;
71148;SDS011;59072;42.144;25.200;2022-09-16T08:12:18;16.55;;;8.10;;
71148;SDS011;59072;42.144;25.200;2022-09-16T08:14:43;13.00;;;6.95;;
71148;SDS011;59072;42.144;25.200;2022-09-16T08:17:08;13.85;;;6.25;;
71148;SDS011;59072;42.144;25.200;2022-09-16T08:19:34;16.55;;;6.05;;
71148;SDS011;59072;42.144;25.200;2022-09-16T08:21:59;17.42;;;6.97;;
71148;SDS011;59072;42.144;25.200;2022-09-16T08:24:25;14.85;;;5.60;;
71148;SDS011;59072;42.144;25.200;2022-09-16T08:26:50;14.50;;;6.80;;
71148;SDS011;59072;42.144;25.200;2022-09-16T08:29:16;13.52;;;6.00;;
71148;SDS011;59072;42.144;25.200;2022-09-16T08:31:41;14.20;;;5.70;;
71148;SDS011;59072;42.144;25.200;2022-09-16T08:34:06;12.10;;;5.38;;
71148;SDS011;59072;42.144;25.200;2022-09-16T08:36:32;14.70;;;6.60;;
71148;SDS011;59072;42.144;25.200;2022-09-16T08:38:57;14.32;;;5.57;;
71148;SDS011;59072;42.144;25.200;2022-09-16T08:41:25;15.73;;;5.88;;
71148;SDS011;59072;42.144;25.200;2022-09-16T08:49:26;15.40;;;4.95;;
71148;SDS011;59072;42.144;25.200;2022-09-16T08:52:01;13.00;;;4.90;;
71148;SDS011;59072;42.144;25.200;2022-09-16T08:57:04;10.68;;;4.75;;
71148;SDS011;59072;42.144;25.200;2022-09-16T08:59:36;15.05;;;4.70;;
71148;SDS011;59072;42.144;25.200;2022-09-16T09:12:39;10.70;;;4.22;;
71148;SDS011;59072;42.144;25.200;2022-09-16T09:27:13;13.02;;;4.00;;
71148;SDS011;59072;42.144;25.200;2022-09-16T09:32:25;13.13;;;4.05;;
71148;SDS011;59072;42.144;25.200;2022-09-16T09:45:57;14.45;;;4.00;;
71148;SDS011;59072;42.144;25.200;2022-09-16T09:48:36;11.05;;;3.42;;
71148;SDS011;59072;42.144;25.200;2022-09-16T09:51:17;13.18;;;3.20;;
71148;SDS011;59072;42.144;25.200;2022-09-16T09:53:52;9.52;;;3.70;;
71148;SDS011;59072;42.144;25.200;2022-09-16T09:56:27;15.27;;;6.07;;
71148;SDS011;59072;42.144;25.200;2022-09-16T10:01:22;9.25;;;3.53;;
71148;SDS011;59072;42.144;25.200;2022-09-16T10:03:49;14.40;;;2.95;;
71148;SDS011;59072;42.144;25.200;2022-09-16T10:06:20;9.10;;;3.33;;
71148;SDS011;59072;42.144;25.200;2022-09-16T10:08:50;15.45;;;3.40;;
71148;SDS011;59072;42.144;25.200;2022-09-16T10:11:19;11.10;;;2.38;;
71148;SDS011;59072;42.144;25.200;2022-09-16T10:13:50;11.57;;;3.58;;
71148;SDS011;59072;42.144;25.200;2022-09-16T10:16:23;10.38;;;3.03;;
71148;SDS011;59072;42.144;25.200;2022-09-16T10:19:01;12.13;;;3.00;;
71148;SDS011;59072;42.144;25.200;2022-09-16T10:21:36;13.45;;;2.65;;
71148;SDS011;59072;42.144;25.200;2022-09-16T10:24:05;12.63;;;3.75;;
71148;SDS011;59072;42.144;25.200;2022-09-16T10:26:46;10.60;;;2.78;;
71148;SDS011;59072;42.144;25.200;2022-09-16T10:29:15;11.73;;;2.30;;
71148;SDS011;59072;42.144;25.200;2022-09-16T10:31:43;9.57;;;2.53;;
71148;SDS011;59072;42.144;25.200;2022-09-16T10:34:14;14.38;;;3.80;;
71148;SDS011;59072;42.144;25.200;2022-09-16T10:36:57;12.48;;;3.33;;
71148;SDS011;59072;42.144;25.200;2022-09-16T10:39:30;10.83;;;2.90;;
71148;SDS011;59072;42.144;25.200;2022-09-16T10:41:56;13.30;;;2.63;;
71148;SDS011;59072;42.144;25.200;2022-09-16T10:44:24;17.73;;;3.40;;
71148;SDS011;59072;42.144;25.200;2022-09-16T10:47:05;16.70;;;3.97;;
71148;SDS011;59072;42.144;25.200;2022-09-16T10:54:44;10.48;;;3.50;;
71148;SDS011;59072;42.144;25.200;2022-09-16T10:57:23;12.90;;;3.63;;
71148;SDS011;59072;42.144;25.200;2022-09-16T11:00:16;11.35;;;3.67;;
71148;SDS011;59072;42.144;25.200;2022-09-16T11:29:53;13.35;;;2.63;;
71148;SDS011;59072;42.144;25.200;2022-09-16T11:35:42;15.77;;;3.00;;
71148;SDS011;59072;42.144;25.200;2022-09-16T11:41:38;18.85;;;2.88;;
71148;SDS011;59072;42.144;25.200;2022-09-16T11:54:58;15.45;;;3.00;;
71148;SDS011;59072;42.144;25.200;2022-09-16T11:57:43;16.02;;;3.50;;
71148;SDS011;59072;42.144;25.200;2022-09-16T12:00:16;18.00;;;3.28;;
71148;SDS011;59072;42.144;25.200;2022-09-16T12:02:50;13.85;;;2.90;;
71148;SDS011;59072;42.144;25.200;2022-09-16T12:13:21;13.20;;;2.80;;
71148;SDS011;59072;42.144;25.200;2022-09-16T12:15:55;17.33;;;3.17;;
71148;SDS011;59072;42.144;25.200;2022-09-16T12:18:38;13.32;;;2.97;;
71148;SDS011;59072;42.144;25.200;2022-09-16T12:21:24;19.23;;;3.92;;
71148;SDS011;59072;42.144;25.200;2022-09-16T12:24:02;15.75;;;3.28;;
71148;SDS011;59072;42.144;25.200;2022-09-16T12:26:43;10.63;;;2.53;;
71148;SDS011;59072;42.144;25.200;2022-09-16T12:29:24;12.95;;;2.72;;
71148;SDS011;59072;42.144;25.200;2022-09-16T12:32:03;16.50;;;4.07;;
71148;SDS011;59072;42.144;25.200;2022-09-16T12:39:58;15.38;;;3.92;;
71148;SDS011;59072;42.144;25.200;2022-09-16T12:47:45;12.27;;;2.97;;
71148;SDS011;59072;42.144;25.200;2022-09-16T13:01:20;16.42;;;3.45;;
71148;SDS011;59072;42.144;25.200;2022-09-16T13:03:56;12.88;;;2.70;;
71148;SDS011;59072;42.144;25.200;2022-09-16T13:06:26;14.32;;;2.97;;
71148;SDS011;59072;42.144;25.200;2022-09-16T13:08:55;13.63;;;2.50;;
71148;SDS011;59072;42.144;25.200;2022-09-16T13:11:34;10.88;;;2.30;;
71148;SDS011;59072;42.144;25.200;2022-09-16T13:14:00;15.13;;;3.42;;
71148;SDS011;59072;42.144;25.200;2022-09-16T13:16:28;11.13;;;2.67;;
71148;SDS011;59072;42.144;25.200;2022-09-16T13:19:14;15.95;;;3.35;;
71148;SDS011;59072;42.144;25.200;2022-09-16T13:21:53;12.95;;;2.70;;
71148;SDS011;59072;42.144;25.200;2022-09-16T13:24:38;10.68;;;2.58;;
71148;SDS011;59072;42.144;25.200;2022-09-16T13:27:23;13.68;;;2.85;;
71148;SDS011;59072;42.144;25.200;2022-09-16T13:29:51;13.90;;;2.70;;
71148;SDS011;59072;42.144;25.200;2022-09-16T13:32:44;13.50;;;2.55;;
71148;SDS011;59072;42.144;25.200;2022-09-16T13:37:57;14.18;;;2.30;;
71148;SDS011;59072;42.144;25.200;2022-09-16T13:40:27;26.80;;;4.53;;
71148;SDS011;59072;42.144;25.200;2022-09-16T13:45:34;19.02;;;3.28;;
71148;SDS011;59072;42.144;25.200;2022-09-16T13:50:49;17.55;;;2.65;;
71148;SDS011;59072;42.144;25.200;2022-09-16T13:53:20;12.82;;;2.60;;
71148;SDS011;59072;42.144;25.200;2022-09-16T13:56:03;12.18;;;2.90;;
71148;SDS011;59072;42.144;25.200;2022-09-16T13:58:53;14.93;;;2.92;;
71148;SDS011;59072;42.144;25.200;2022-09-16T14:01:27;15.88;;;2.95;;
71148;SDS011;59072;42.144;25.200;2022-09-16T14:09:59;14.70;;;3.03;;
71148;SDS011;59072;42.144;25.200;2022-09-16T14:15:18;11.82;;;2.33;;
71148;SDS011;59072;42.144;25.200;2022-09-16T14:17:46;14.02;;;2.58;;
71148;SDS011;59072;42.144;25.200;2022-09-16T14:20:16;15.27;;;2.35;;
71148;SDS011;59072;42.144;25.200;2022-09-16T14:22:44;15.32;;;2.97;;
71148;SDS011;59072;42.144;25.200;2022-09-16T14:25:26;14.57;;;2.88;;
71148;SDS011;59072;42.144;25.200;2022-09-16T14:30:55;13.32;;;3.17;;
71148;SDS011;59072;42.144;25.200;2022-09-16T14:33:33;14.70;;;3.42;;
71148;SDS011;59072;42.144;25.200;2022-09-16T14:41:29;9.48;;;2.10;;
71148;SDS011;59072;42.144;25.200;2022-09-16T14:44:08;13.85;;;3.38;;
71148;SDS011;59072;42.144;25.200;2022-09-16T14:49:28;10.93;;;2.83;;
71148;SDS011;59072;42.144;25.200;2022-09-16T14:51:58;11.50;;;2.73;;
71148;SDS011;59072;42.144;25.200;2022-09-16T14:54:28;11.80;;;2.53;;
71148;SDS011;59072;42.144;25.200;2022-09-16T14:59:32;13.65;;;2.70;;
71148;SDS011;59072;42.144;25.200;2022-09-16T15:04:46;14.82;;;2.92;;
71148;SDS011;59072;42.144;25.200;2022-09-16T15:07:35;13.45;;;3.00;;
71148;SDS011;59072;42.144;25.200;2022-09-16T15:10:05;12.50;;;2.97;;
71148;SDS011;59072;42.144;25.200;2022-09-16T15:12:42;14.55;;;3.08;;
71148;SDS011;59072;42.144;25.200;2022-09-16T15:15:22;11.15;;;2.60;;
71148;SDS011;59072;42.144;25.200;2022-09-16T15:17:53;14.20;;;2.63;;
71148;SDS011;59072;42.144;25.200;2022-09-16T15:20:23;12.05;;;2.58;;
71148;SDS011;59072;42.144;25.200;2022-09-16T15:22:51;13.32;;;3.28;;
71148;SDS011;59072;42.144;25.200;2022-09-16T15:25:21;11.17;;;2.47;;
71148;SDS011;59072;42.144;25.200;2022-09-16T15:27:49;11.15;;;2.40;;
71148;SDS011;59072;42.144;25.200;2022-09-16T15:30:20;8.25;;;2.50;;
71148;SDS011;59072;42.144;25.200;2022-09-16T15:32:47;11.23;;;2.63;;
71148;SDS011;59072;42.144;25.200;2022-09-16T15:37:49;12.32;;;2.90;;
71148;SDS011;59072;42.144;25.200;2022-09-16T15:42:47;10.15;;;2.97;;
71148;SDS011;59072;42.144;25.200;2022-09-16T15:45:25;13.35;;;3.88;;
71148;SDS011;59072;42.144;25.200;2022-09-16T15:47:53;13.75;;;3.63;;
71148;SDS011;59072;42.144;25.200;2022-09-16T15:50:20;14.02;;;2.97;;
71148;SDS011;59072;42.144;25.200;2022-09-16T15:52:58;11.33;;;3.53;;
71148;SDS011;59072;42.144;25.200;2022-09-16T15:58:05;14.15;;;3.55;;
71148;SDS011;59072;42.144;25.200;2022-09-16T16:00:57;12.88;;;3.38;;
71148;SDS011;59072;42.144;25.200;2022-09-16T16:06:18;10.15;;;2.38;;
71148;SDS011;59072;42.144;25.200;2022-09-16T16:08:46;8.82;;;2.20;;
71148;SDS011;59072;42.144;25.200;2022-09-16T16:11:14;12.40;;;2.42;;
71148;SDS011;59072;42.144;25.200;2022-09-16T16:13:42;10.90;;;2.03;;
71148;SDS011;59072;42.144;25.200;2022-09-16T16:16:08;10.65;;;2.80;;
71148;SDS011;59072;42.144;25.200;2022-09-16T16:18:36;8.60;;;2.25;;
71148;SDS011;59072;42.144;25.200;2022-09-16T16:21:10;7.22;;;2.13;;
71148;SDS011;59072;42.144;25.200;2022-09-16T16:23:38;12.00;;;2.10;;
71148;SDS011;59072;42.144;25.200;2022-09-16T16:26:04;7.15;;;2.60;;
71148;SDS011;59072;42.144;25.200;2022-09-16T16:28:31;7.28;;;2.15;;
71148;SDS011;59072;42.144;25.200;2022-09-16T16:31:16;6.65;;;2.10;;
71148;SDS011;59072;42.144;25.200;2022-09-16T16:33:45;8.68;;;2.10;;
71148;SDS011;59072;42.144;25.200;2022-09-16T16:36:16;10.85;;;2.30;;
71148;SDS011;59072;42.144;25.200;2022-09-16T16:38:42;9.80;;;2.00;;
71148;SDS011;59072;42.144;25.200;2022-09-16T16:41:10;10.80;;;3.70;;
71148;SDS011;59072;42.144;25.200;2022-09-16T16:43:36;6.82;;;1.65;;
71148;SDS011;59072;42.144;25.200;2022-09-16T16:46:02;10.85;;;3.13;;
71148;SDS011;59072;42.144;25.200;2022-09-16T16:48:28;8.18;;;2.28;;
71148;SDS011;59072;42.144;25.200;2022-09-16T16:51:02;8.48;;;3.65;;
71148;SDS011;59072;42.144;25.200;2022-09-16T16:53:32;7.93;;;4.32;;
71148;SDS011;59072;42.144;25.200;2022-09-16T16:56:08;9.90;;;3.38;;
71148;SDS011;59072;42.144;25.200;2022-09-16T17:01:05;11.18;;;4.10;;
71148;SDS011;59072;42.144;25.200;2022-09-16T17:03:32;8.45;;;2.78;;
71148;SDS011;59072;42.144;25.200;2022-09-16T17:05:58;8.13;;;3.10;;
71148;SDS011;59072;42.144;25.200;2022-09-16T17:08:23;9.38;;;3.35;;
71148;SDS011;59072;42.144;25.200;2022-09-16T17:10:56;12.48;;;3.97;;
71148;SDS011;59072;42.144;25.200;2022-09-16T17:13:32;11.95;;;5.03;;
71148;SDS011;59072;42.144;25.200;2022-09-16T17:15:58;12.13;;;5.35;;
71148;SDS011;59072;42.144;25.200;2022-09-16T17:18:23;9.02;;;4.53;;
71148;SDS011;59072;42.144;25.200;2022-09-16T17:20:49;12.52;;;5.00;;
71148;SDS011;59072;42.144;25.200;2022-09-16T17:23:14;11.32;;;5.38;;
71148;SDS011;59072;42.144;25.200;2022-09-16T17:25:40;11.52;;;4.82;;
71148;SDS011;59072;42.144;25.200;2022-09-16T17:28:05;11.98;;;4.35;;
71148;SDS011;59072;42.144;25.200;2022-09-16T17:30:31;10.70;;;4.35;;
71148;SDS011;59072;42.144;25.200;2022-09-16T17:32:57;11.52;;;4.95;;
71148;SDS011;59072;42.144;25.200;2022-09-16T17:35:22;10.35;;;3.97;;
71148;SDS011;59072;42.144;25.200;2022-09-16T17:37:48;11.00;;;3.88;;
71148;SDS011;59072;42.144;25.200;2022-09-16T17:40:13;11.38;;;4.32;;
71148;SDS011;59072;42.144;25.200;2022-09-16T17:42:39;12.23;;;3.78;;
71148;SDS011;59072;42.144;25.200;2022-09-16T17:45:04;11.40;;;3.67;;
71148;SDS011;59072;42.144;25.200;2022-09-16T17:47:31;11.50;;;4.70;;
71148;SDS011;59072;42.144;25.200;2022-09-16T17:49:58;14.43;;;3.80;;
71148;SDS011;59072;42.144;25.200;2022-09-16T17:52:28;9.77;;;3.28;;
71148;SDS011;59072;42.144;25.200;2022-09-16T17:54:54;12.93;;;2.87;;
71148;SDS011;59072;42.144;25.200;2022-09-16T17:57:19;11.70;;;3.22;;
71148;SDS011;59072;42.144;25.200;2022-09-16T17:59:46;10.25;;;3.03;;
71148;SDS011;59072;42.144;25.200;2022-09-16T18:02:12;6.50;;;2.30;;
71148;SDS011;59072;42.144;25.200;2022-09-16T18:04:39;8.75;;;2.72;;
71148;SDS011;59072;42.144;25.200;2022-09-16T18:07:07;7.30;;;2.47;;
71148;SDS011;59072;42.144;25.200;2022-09-16T18:09:32;8.35;;;2.47;;
71148;SDS011;59072;42.144;25.200;2022-09-16T18:11:57;17.23;;;3.53;;
71148;SDS011;59072;42.144;25.200;2022-09-16T18:14:23;10.38;;;3.88;;
71148;SDS011;59072;42.144;25.200;2022-09-16T18:16:48;13.43;;;3.72;;
71148;SDS011;59072;42.144;25.200;2022-09-16T18:19:14;11.23;;;3.90;;
71148;SDS011;59072;42.144;25.200;2022-09-16T18:21:39;8.13;;;3.25;;
71148;SDS011;59072;42.144;25.200;2022-09-16T18:24:05;12.75;;;3.20;;
71148;SDS011;59072;42.144;25.200;2022-09-16T18:26:35;12.73;;;3.53;;
71148;SDS011;59072;42.144;25.200;2022-09-16T18:29:02;9.43;;;3.30;;
71148;SDS011;59072;42.144;25.200;2022-09-16T18:31:28;9.63;;;3.33;;